Time;durP1;ratioP1;P1;durP2;ratioP2;P2;SDS_P1;SDS_P2;PMS_P1;PMS_P2;Temp;Humidity;BMP_temperature;BMP_pressure;BME280_temperature;BME280_humidity;BME280_pressure;Samples;Min_cycle;Max_cycle;Signal;HPM_P1;HPM_P2
2022/02/03 00:01:13;;;;;;;;;;;;;;;14.55;61.66;102112.56;5012411;28;19955;-81
2022/02/03 00:06:10;;;;;;;;;;;;;;;14.17;62.75;102123.28;5013022;28;19921;-81
2022/02/03 00:16:56;;;;;;;;;;;;;;;13.90;63.14;102106.28;5017887;28;20017;-82
2022/02/03 00:24:57;;;;;;;;;;;;;;;14.01;63.70;102120.34;5017800;28;19918;-81
2022/02/03 00:27:22;;;;;;;;;;;;;;;13.86;64.01;102115.50;5016342;28;19921;-82
2022/02/03 00:30:02;;;;;;;;;;;;;;;14.44;61.59;102118.47;5017335;28;20387;-80
2022/02/03 00:35:22;;;;;;;;;;;;;;;14.71;61.56;102110.09;5017516;28;20299;-81
2022/02/03 00:48:56;;;;;;;;;;;;;;;14.52;61.85;102093.63;5017316;28;19942;-81
2022/02/03 00:51:23;;;;;;;;;;;;;;;14.94;59.87;102098.13;5016881;28;19918;-81
2022/02/03 00:53:49;;;;;;;;;;;;;;;15.04;58.59;102090.44;5016861;28;19922;-81
2022/02/03 00:56:23;;;;;;;;;;;;;;;15.79;57.20;102085.94;5016461;28;19925;-80
2022/02/03 00:58:54;;;;;;;;;;;;;;;14.92;59.52;102091.00;5016796;28;20000;-81
2022/02/03 01:01:23;;;;;;;;;;;;;;;13.81;63.26;102096.66;5016568;28;19917;-81
2022/02/03 01:03:49;;;;;;;;;;;;;;;14.34;61.52;102085.34;5016284;28;19918;-81
2022/02/03 01:06:15;;;;;;;;;;;;;;;15.49;57.35;102074.66;5014804;28;19921;-81
2022/02/03 01:08:45;;;;;;;;;;;;;;;15.27;58.12;102081.16;5014872;28;19924;-80
2022/02/03 01:11:17;;;;;;;;;;;;;;;14.84;59.40;102083.16;5014938;28;19975;-81
2022/02/03 01:13:55;;;;;;;;;;;;;;;14.77;61.51;102090.75;5014755;28;19918;-81
2022/02/03 01:19:17;;;;;;;;;;;;;;;13.70;63.70;102082.63;5016264;28;19928;-81
2022/02/03 01:36:46;;;;;;;;;;;;;;;15.64;55.94;102040.31;5015994;28;20076;-81
2022/02/03 01:43:29;;;;;;;;;;;;;;;14.60;61.02;102041.56;5016089;28;19924;-81
2022/02/03 01:45:57;;;;;;;;;;;;;;;14.85;59.78;102042.22;5014601;28;19921;-81
2022/02/03 01:53:46;;;;;;;;;;;;;;;13.77;65.05;102036.06;5016342;28;19936;-81
2022/02/03 01:56:12;;;;;;;;;;;;;;;14.39;62.75;102044.31;5014521;28;20367;-81
2022/02/03 01:58:46;;;;;;;;;;;;;;;14.36;62.67;102036.28;5015900;28;19926;-81
2022/02/03 02:01:13;;;;;;;;;;;;;;;14.45;61.92;102027.69;5014642;28;19918;-81
2022/02/03 02:03:45;;;;;;;;;;;;;;;14.59;60.97;102035.22;5015660;28;19960;-81
2022/02/03 02:06:29;;;;;;;;;;;;;;;13.68;65.14;102031.03;5015113;28;19948;-81
2022/02/03 02:09:01;;;;;;;;;;;;;;;13.67;65.87;102023.78;5014251;28;20283;-81
2022/02/03 02:12:01;;;;;;;;;;;;;;;13.43;65.55;102036.56;5014286;28;20000;-82
2022/02/03 02:14:53;;;;;;;;;;;;;;;13.20;65.68;102037.47;5014227;28;19918;-81
2022/02/03 02:36:49;;;;;;;;;;;;;;;13.20;67.79;102030.19;5015016;28;19952;-81
2022/02/03 02:39:11;;;;;;;;;;;;;;;13.70;62.97;101993.75;5015023;28;19924;-82
2022/02/03 02:44:47;;;;;;;;;;;;;;;13.17;65.07;101966.94;5014768;28;19928;-81
2022/02/03 02:47:22;;;;;;;;;;;;;;;13.29;65.46;101958.28;5014568;28;19928;-80
2022/02/03 02:49:53;;;;;;;;;;;;;;;12.78;66.98;101971.16;5013121;28;20004;-81
2022/02/03 02:52:37;;;;;;;;;;;;;;;12.75;66.03;101957.72;5013317;28;20067;-81
2022/02/03 03:30:25;;;;;;;;;;;;;;;13.27;62.07;101894.94;5013863;28;19924;-81
2022/02/03 03:33:09;;;;;;;;;;;;;;;13.02;61.38;101874.25;5013242;28;19917;-80
2022/02/03 03:35:44;;;;;;;;;;;;;;;13.52;62.40;101864.91;5012139;28;19917;-80
2022/02/03 03:38:12;;;;;;;;;;;;;;;12.59;64.19;101868.72;5012508;28;20394;-81
2022/02/03 03:40:39;;;;;;;;;;;;;;;13.36;63.16;101869.25;5012347;28;19988;-80
2022/02/03 03:43:05;;;;;;;;;;;;;;;13.47;60.38;101870.56;5012386;28;20043;-81
2022/02/03 03:45:31;;;;;;;;;;;;;;;14.36;58.43;101859.31;5012243;28;20011;-81
2022/02/03 03:47:59;;;;;;;;;;;;;;;13.86;60.08;101862.53;5012627;28;19956;-81
2022/02/03 03:50:27;;;;;;;;;;;;;;;13.95;59.36;101864.81;5015958;28;19924;-81
2022/02/03 03:53:06;;;;;;;;;;;;;;;14.08;58.65;101863.31;5015797;28;20402;-81
2022/02/03 04:42:34;;;;;;;;;;;;;;;13.91;58.90;101823.28;5017319;28;19917;-78
2022/02/03 05:02:16;;;;;;;;;;;;;;;12.51;64.72;101816.56;5016802;28;19936;-81
2022/02/03 05:05:25;;;;;;;;;;;;;;;12.86;62.79;101829.66;5015288;28;19921;-80
2022/02/03 05:19:56;;;;;;;;;;;;;;;12.74;63.59;101785.78;5016675;28;20306;-81
2022/02/03 05:23:16;;;;;;;;;;;;;;;13.37;60.18;101776.78;5016048;28;19928;-81
2022/02/03 05:35:06;;;;;;;;;;;;;;;12.59;62.08;101767.38;5016472;28;19924;-80
2022/02/03 05:45:38;;;;;;;;;;;;;;;12.53;62.53;101751.34;5015699;28;19989;-79
2022/02/03 06:01:48;;;;;;;;;;;;;;;13.53;58.43;101711.72;5015977;28;19924;-82
2022/02/03 06:12:43;;;;;;;;;;;;;;;14.68;53.51;101705.28;5014218;28;19924;-80
2022/02/03 06:15:12;;;;;;;;;;;;;;;13.87;56.44;101710.13;5015748;28;19922;-82
2022/02/03 06:23:41;;;;;;;;;;;;;;;14.04;55.69;101714.78;5014265;28;20422;-80
2022/02/03 06:28:55;;;;;;;;;;;;;;;14.57;54.22;101699.47;5016168;28;20299;-80
2022/02/03 06:31:20;;;;;;;;;;;;;;;14.22;53.99;101691.25;5014342;28;19917;-79
2022/02/03 06:33:46;;;;;;;;;;;;;;;14.36;54.91;101679.66;5013884;28;20382;-81
2022/02/03 06:36:11;;;;;;;;;;;;;;;14.67;54.07;101676.28;5014723;28;19917;-81
2022/02/03 06:38:37;;;;;;;;;;;;;;;13.57;56.83;101671.69;5015491;28;20044;-82
2022/02/03 06:41:03;;;;;;;;;;;;;;;14.18;54.94;101663.28;5015119;28;19917;-82
2022/02/03 06:43:29;;;;;;;;;;;;;;;13.22;57.01;101666.88;5014500;28;19940;-83
2022/02/03 06:46:01;;;;;;;;;;;;;;;13.04;58.41;101657.72;5014627;28;20023;-85
2022/02/03 06:48:28;;;;;;;;;;;;;;;12.69;60.58;101657.47;5015333;28;20019;-82
2022/02/03 06:51:02;;;;;;;;;;;;;;;13.54;57.89;101652.78;5015000;28;20382;-82
2022/02/03 06:53:31;;;;;;;;;;;;;;;12.39;61.06;101659.66;5014285;28;19917;-79
2022/02/03 06:56:05;;;;;;;;;;;;;;;12.77;60.24;101674.31;5013113;28;19952;-82
2022/02/03 06:58:37;;;;;;;;;;;;;;;13.44;58.22;101663.22;5012130;28;20391;-82
2022/02/03 07:01:45;;;;;;;;;;;;;;;12.91;59.88;101667.41;5012495;28;19924;-83
2022/02/03 07:03:58;;;;;;;;;;;;;;;12.81;58.78;101672.34;5007921;28;19963;-83
2022/02/03 07:06:23;;;;;;;;;;;;;;;13.09;58.91;101674.72;5012540;28;20021;-82
2022/02/03 07:08:50;;;;;;;;;;;;;;;12.89;59.97;101663.84;5013036;28;19948;-80
2022/02/03 07:11:19;;;;;;;;;;;;;;;12.81;60.29;101676.91;5012020;28;20379;-81
2022/02/03 07:13:44;;;;;;;;;;;;;;;13.11;58.97;101672.81;5012127;28;19956;-82
2022/02/03 07:16:10;;;;;;;;;;;;;;;12.96;58.97;101665.34;5011863;28;19968;-81
2022/02/03 07:18:35;;;;;;;;;;;;;;;12.90;59.42;101669.22;5011616;28;19929;-82
2022/02/03 07:21:00;;;;;;;;;;;;;;;12.22;61.74;101665.81;5011854;28;19921;-82
2022/02/03 07:23:25;;;;;;;;;;;;;;;12.79;60.88;101651.63;5011897;28;19918;-82
2022/02/03 07:25:51;;;;;;;;;;;;;;;13.24;58.92;101654.13;5013090;28;19917;-82
2022/02/03 07:28:16;;;;;;;;;;;;;;;13.06;59.49;101654.97;5010864;28;20030;-82
2022/02/03 07:30:41;;;;;;;;;;;;;;;12.72;60.41;101645.59;5010561;28;19918;-82
2022/02/03 07:33:07;;;;;;;;;;;;;;;12.96;60.35;101642.75;5012226;28;19923;-82
2022/02/03 07:35:34;;;;;;;;;;;;;;;12.47;61.37;101638.53;5011843;28;19962;-82
2022/02/03 07:38:02;;;;;;;;;;;;;;;12.96;59.06;101643.63;5010432;28;19918;-82
2022/02/03 07:40:27;;;;;;;;;;;;;;;13.24;58.42;101642.34;5010533;28;19960;-84
2022/02/03 07:42:54;;;;;;;;;;;;;;;12.83;60.57;101642.41;5010779;28;19964;-83
2022/02/03 07:45:20;;;;;;;;;;;;;;;13.21;59.39;101650.66;5016935;28;20103;-82
2022/02/03 07:47:46;;;;;;;;;;;;;;;12.99;60.06;101657.06;5020545;28;19933;-82
2022/02/03 07:50:12;;;;;;;;;;;;;;;13.08;59.81;101645.78;5011020;28;20327;-82
2022/02/03 07:52:38;;;;;;;;;;;;;;;13.04;59.79;101643.28;5010956;28;19921;-82
2022/02/03 07:55:03;;;;;;;;;;;;;;;12.82;60.53;101643.34;5011165;28;19984;-82
2022/02/03 07:57:30;;;;;;;;;;;;;;;13.34;59.64;101643.75;5012620;28;19917;-82
2022/02/03 07:59:55;;;;;;;;;;;;;;;12.82;60.90;101637.91;4995071;28;19921;-81
2022/02/03 08:02:20;;;;;;;;;;;;;;;12.82;60.89;101638.81;5012956;28;20268;-82
2022/02/03 08:04:47;;;;;;;;;;;;;;;13.06;61.65;101634.13;5012473;28;19925;-83
2022/02/03 08:07:16;;;;;;;;;;;;;;;12.33;63.70;101646.34;5010931;28;20026;-80
2022/02/03 08:10:00;;;;;;;;;;;;;;;12.74;63.52;101640.97;4995157;28;19925;-80
2022/02/03 08:12:31;;;;;;;;;;;;;;;11.98;67.48;101646.00;5011620;28;19917;-83
2022/02/03 08:14:57;;;;;;;;;;;;;;;11.97;69.39;101650.53;5010934;28;19921;-81
2022/02/03 08:17:29;;;;;;;;;;;;;;;12.39;69.54;101651.53;5011236;28;19921;-81
2022/02/03 08:19:59;;;;;;;;;;;;;;;12.47;67.84;101635.81;5010995;28;19924;-80
2022/02/03 08:22:29;;;;;;;;;;;;;;;11.33;74.66;101640.38;5011200;28;20000;-81
2022/02/03 08:25:09;;;;;;;;;;;;;;;11.82;72.83;101642.97;5011014;28;20382;-80
2022/02/03 08:32:30;;;;;;;;;;;;;;;11.37;74.24;101611.31;5012497;28;19968;-81
2022/02/03 08:37:28;;;;;;;;;;;;;;;11.55;81.79;101616.03;5015980;28;20367;-81
2022/02/03 08:39:57;;;;;;;;;;;;;;;12.00;73.49;101623.31;5014829;28;19918;-81
2022/02/03 08:42:22;;;;;;;;;;;;;;;12.05;72.00;101614.97;5015891;28;19984;-81
2022/02/03 08:44:48;;;;;;;;;;;;;;;12.20;71.50;101608.91;5014627;28;19921;-81
2022/02/03 08:47:13;;;;;;;;;;;;;;;11.62;73.50;101613.97;5015823;28;19926;-81
2022/02/03 08:49:43;;;;;;;;;;;;;;;11.52;72.91;101602.63;5014466;28;20004;-82
2022/02/03 08:52:16;;;;;;;;;;;;;;;11.73;72.69;101610.81;5014224;28;20004;-81
2022/02/03 08:54:49;;;;;;;;;;;;;;;12.04;72.53;101603.22;5015620;28;20418;-81
2022/02/03 08:57:22;;;;;;;;;;;;;;;11.01;73.63;101606.38;5014128;28;19917;-79
2022/02/03 09:35:50;;;;;;;;;;;;;;;11.96;73.34;101621.66;4995150;28;20295;-82
2022/02/03 09:40:59;;;;;;;;;;;;;;;12.30;72.07;101612.09;4995359;28;20056;-83
2022/02/03 09:52:03;;;;;;;;;;;;;;;12.14;71.53;101600.13;4995421;28;19928;-82
2022/02/03 09:57:14;;;;;;;;;;;;;;;12.30;72.39;101594.94;4994986;28;20360;-82
2022/02/03 10:02:16;;;;;;;;;;;;;;;12.20;72.86;101591.75;4993963;28;20404;-82
2022/02/03 10:04:54;;;;;;;;;;;;;;;11.63;73.28;101610.31;4993382;28;19968;-82
2022/02/03 10:07:22;;;;;;;;;;;;;;;11.84;75.02;101579.63;4993379;28;20004;-82
2022/02/03 10:09:49;;;;;;;;;;;;;;;11.67;74.88;101583.03;4993536;28;20012;-81
2022/02/03 10:12:15;;;;;;;;;;;;;;;11.89;75.61;101584.84;5008471;28;20016;-80
2022/02/03 10:14:41;;;;;;;;;;;;;;;12.26;71.19;101586.06;5007834;28;19921;-81
2022/02/03 10:17:08;;;;;;;;;;;;;;;12.29;72.08;101595.88;5007277;28;20372;-80
2022/02/03 10:19:51;;;;;;;;;;;;;;;11.80;73.99;101594.22;5011204;28;19968;-81
2022/02/03 10:22:19;;;;;;;;;;;;;;;12.34;71.91;101580.31;5010886;28;19922;-80
2022/02/03 10:24:50;;;;;;;;;;;;;;;12.56;71.12;101574.78;5011145;28;19931;-80
2022/02/03 10:27:24;;;;;;;;;;;;;;;12.94;69.27;101578.50;5012043;28;19961;-81
2022/02/03 10:30:04;;;;;;;;;;;;;;;12.18;71.34;101569.22;5011949;28;19921;-80
2022/02/03 10:32:35;;;;;;;;;;;;;;;11.73;71.95;101578.28;5011848;28;20577;-79
2022/02/03 10:35:12;;;;;;;;;;;;;;;11.75;71.73;101577.28;5011616;28;20363;-81
2022/02/03 10:37:43;;;;;;;;;;;;;;;12.15;71.06;101566.63;5013366;28;19968;-83
2022/02/03 10:43:37;;;;;;;;;;;;;;;11.50;74.04;101569.25;5013841;28;19925;-82
2022/02/03 10:49:11;;;;;;;;;;;;;;;12.15;71.76;101555.78;5013799;28;20013;-82
2022/02/03 10:52:26;;;;;;;;;;;;;;;11.86;71.37;101556.03;5012124;28;19924;-82
2022/02/03 11:08:12;;;;;;;;;;;;;;;11.68;70.20;101540.53;5014580;28;20011;-82
2022/02/03 11:10:38;;;;;;;;;;;;;;;12.00;71.54;101520.25;5019419;28;19975;-81
2022/02/03 11:13:04;;;;;;;;;;;;;;;12.12;69.83;101523.38;5017500;28;20240;-82
2022/02/03 11:15:30;;;;;;;;;;;;;;;11.46;71.87;101529.72;5021063;28;19939;-81
2022/02/03 11:17:57;;;;;;;;;;;;;;;12.11;69.73;101521.59;5021049;28;19933;-80
2022/02/03 11:20:24;;;;;;;;;;;;;;;11.86;68.87;101523.50;5020967;28;19921;-81
2022/02/03 11:23:01;;;;;;;;;;;;;;;11.58;71.24;101521.06;5020088;28;19917;-83
2022/02/03 11:28:28;;;;;;;;;;;;;;;11.04;73.57;101517.78;5021062;28;19975;-82
2022/02/03 11:49:22;;;;;;;;;;;;;;;12.16;68.46;101487.03;5020394;28;19932;-82
2022/02/03 12:00:01;;;;;;;;;;;;;;;11.64;72.50;101487.38;5021979;28;19920;-82
2022/02/03 12:19:34;;;;;;;;;;;;;;;11.29;76.76;101473.47;5022446;28;19970;-81
2022/02/03 12:22:08;;;;;;;;;;;;;;;10.49;80.28;101465.75;5018965;28;20339;-81
2022/02/03 12:24:45;;;;;;;;;;;;;;;11.06;78.18;101466.28;5025473;28;19921;-81
2022/02/03 12:30:16;;;;;;;;;;;;;;;11.38;76.12;101462.25;5023509;28;19920;-79
2022/02/03 12:36:56;;;;;;;;;;;;;;;11.84;74.53;101449.47;5018937;28;19973;-81
2022/02/03 12:38:34;;;;;;;;;;;;;;;11.97;73.83;101440.84;5025705;28;19974;-83
2022/02/03 12:41:10;;;;;;;;;;;;;;;12.13;72.76;101438.34;5025913;28;19917;-81
2022/02/03 12:43:39;;;;;;;;;;;;;;;12.04;72.52;101439.63;5022050;28;19917;-80
2022/02/03 12:46:06;;;;;;;;;;;;;;;12.33;70.05;101438.31;5019650;28;19944;-82
2022/02/03 12:48:32;;;;;;;;;;;;;;;12.41;69.97;101438.84;5024560;28;19929;-81
2022/02/03 12:50:57;;;;;;;;;;;;;;;11.72;73.65;101433.75;5023224;28;19933;-82
2022/02/03 12:53:28;;;;;;;;;;;;;;;13.12;69.13;101435.50;5022278;28;19941;-81
2022/02/03 12:55:54;;;;;;;;;;;;;;;12.26;70.65;101431.44;5021748;28;20012;-82
2022/02/03 12:58:24;;;;;;;;;;;;;;;12.69;68.24;101420.41;5024597;28;19964;-80
2022/02/03 13:01:03;;;;;;;;;;;;;;;12.50;70.32;101425.81;5023130;28;20296;-82
2022/02/03 13:03:33;;;;;;;;;;;;;;;12.54;69.41;101417.44;5013793;28;20331;-81
2022/02/03 13:06:04;;;;;;;;;;;;;;;12.31;69.93;101414.94;5013848;28;19925;-81
2022/02/03 13:08:41;;;;;;;;;;;;;;;12.91;68.29;101414.84;5013704;28;20000;-81
2022/02/03 13:11:14;;;;;;;;;;;;;;;12.55;68.89;101418.34;5015191;28;19918;-80
2022/02/03 13:13:53;;;;;;;;;;;;;;;12.20;69.11;101412.72;5017619;28;19922;-80
2022/02/03 13:16:19;;;;;;;;;;;;;;;12.87;68.21;101400.50;5022504;28;19921;-81
2022/02/03 13:18:52;;;;;;;;;;;;;;;12.71;68.79;101411.25;5021677;28;19983;-83
2022/02/03 13:21:34;;;;;;;;;;;;;;;12.35;69.03;101403.88;5021942;28;20000;-81
2022/02/03 13:24:21;;;;;;;;;;;;;;;12.40;69.65;101398.22;5023051;28;19953;-82
2022/02/03 13:26:47;;;;;;;;;;;;;;;12.86;68.62;101390.63;5023267;28;19925;-81
2022/02/03 13:29:18;;;;;;;;;;;;;;;13.33;65.27;101383.78;5022684;28;19924;-82
2022/02/03 13:31:55;;;;;;;;;;;;;;;13.35;65.67;101381.03;5021345;28;20015;-81
2022/02/03 13:34:32;;;;;;;;;;;;;;;12.58;67.84;101381.06;5012024;28;19925;-83
2022/02/03 13:37:16;;;;;;;;;;;;;;;11.93;70.70;101385.00;5013805;28;20518;-83
2022/02/03 13:39:45;;;;;;;;;;;;;;;12.26;69.62;101382.59;5013740;28;19973;-82
2022/02/03 13:42:11;;;;;;;;;;;;;;;12.27;68.79;101384.34;5013349;28;19918;-80
2022/02/03 13:44:37;;;;;;;;;;;;;;;12.14;69.81;101381.31;5012890;28;20019;-80
2022/02/03 13:47:18;;;;;;;;;;;;;;;12.32;71.22;101381.41;5022520;28;20015;-81
2022/02/03 13:49:44;;;;;;;;;;;;;;;11.58;72.96;101373.84;5023566;28;19925;-80
2022/02/03 13:52:15;;;;;;;;;;;;;;;11.98;70.75;101377.53;5024956;28;19917;-81
2022/02/03 14:16:22;;;;;;;;;;;;;;;11.54;72.09;101354.13;5033591;28;19928;-81
2022/02/03 14:19:14;;;;;;;;;;;;;;;11.15;73.12;101357.59;5032572;28;20003;-81
2022/02/03 14:21:45;;;;;;;;;;;;;;;12.56;67.39;101353.13;5033562;28;19994;-82
2022/02/03 14:27:04;;;;;;;;;;;;;;;12.39;68.50;101345.81;5034000;28;19928;-82
2022/02/03 14:29:32;;;;;;;;;;;;;;;12.21;69.41;101336.69;5031740;28;20371;-80
2022/02/03 14:32:04;;;;;;;;;;;;;;;12.38;67.42;101338.59;5031748;28;20318;-82
2022/02/03 14:34:32;;;;;;;;;;;;;;;13.04;65.74;101331.78;5031860;28;19917;-81
2022/02/03 14:37:50;;;;;;;;;;;;;;;12.49;67.92;101332.66;5032563;28;20279;-82
2022/02/03 14:42:18;;;;;;;;;;;;;;;13.03;66.56;101324.59;5033866;28;20377;-81
2022/02/03 14:44:43;;;;;;;;;;;;;;;12.14;68.33;101332.50;5031942;28;19921;-82
2022/02/03 14:47:09;;;;;;;;;;;;;;;12.93;67.34;101337.75;5033355;28;19928;-81
2022/02/03 14:49:35;;;;;;;;;;;;;;;12.74;66.67;101329.66;5032018;28;19917;-83
2022/02/03 14:52:22;;;;;;;;;;;;;;;12.81;65.47;101332.06;5032061;28;20015;-82
2022/02/03 15:00:15;;;;;;;;;;;;;;;12.33;68.05;101321.66;5033481;28;20024;-82
2022/02/03 15:02:40;;;;;;;;;;;;;;;12.77;67.31;101315.03;5032616;28;20023;-83
2022/02/03 15:05:09;;;;;;;;;;;;;;;12.85;67.13;101320.97;5032945;28;19920;-83
2022/02/03 15:07:40;;;;;;;;;;;;;;;13.34;64.47;101319.47;5031582;28;19921;-83
2022/02/03 15:15:01;;;;;;;;;;;;;;;13.25;64.50;101313.50;5022709;28;20330;-81
2022/02/03 15:17:31;;;;;;;;;;;;;;;13.42;64.24;101306.34;5028098;28;20039;-81
2022/02/03 15:19:58;;;;;;;;;;;;;;;12.41;67.39;101313.16;5021273;28;19922;-81
2022/02/03 15:22:23;;;;;;;;;;;;;;;11.98;69.63;101312.47;5012570;28;19926;-81
2022/02/03 15:24:48;;;;;;;;;;;;;;;13.08;65.29;101311.66;5015211;28;19932;-81
2022/02/03 15:27:15;;;;;;;;;;;;;;;12.96;66.96;101311.41;5019395;28;19925;-82
2022/02/03 15:29:45;;;;;;;;;;;;;;;12.74;67.18;101316.06;5030667;28;19917;-81
2022/02/03 15:32:10;;;;;;;;;;;;;;;12.86;64.81;101310.97;5032049;28;19995;-82
2022/02/03 15:34:35;;;;;;;;;;;;;;;12.96;64.87;101306.84;5030988;28;19971;-83
2022/02/03 15:37:02;;;;;;;;;;;;;;;13.11;66.10;101307.91;5031004;28;19944;-85
2022/02/03 15:39:35;;;;;;;;;;;;;;;13.32;64.50;101308.66;5024436;28;20346;-82
2022/02/03 15:42:00;;;;;;;;;;;;;;;12.45;66.80;101303.91;5019164;28;19926;-83
2022/02/03 15:44:26;;;;;;;;;;;;;;;13.54;63.90;101297.59;5022059;28;19979;-82
2022/02/03 15:47:01;;;;;;;;;;;;;;;12.66;65.48;101301.97;5020680;28;19952;-82
2022/02/03 15:58:16;;;;;;;;;;;;;;;12.57;68.32;101303.31;5020174;28;20060;-82
2022/02/03 16:00:46;;;;;;;;;;;;;;;12.98;65.96;101304.06;5020680;28;19917;-82
2022/02/03 16:19:06;;;;;;;;;;;;;;;13.21;65.62;101309.22;5019591;28;19968;-80
2022/02/03 16:21:38;;;;;;;;;;;;;;;12.86;66.02;101316.41;5021360;28;19921;-82
2022/02/03 16:43:33;;;;;;;;;;;;;;;13.25;65.28;101308.06;5032406;28;19924;-82
2022/02/03 16:53:42;;;;;;;;;;;;;;;13.14;63.45;101312.31;5032646;28;19972;-83
2022/02/03 16:56:10;;;;;;;;;;;;;;;13.41;64.01;101308.19;5032666;28;19917;-82
2022/02/03 16:58:36;;;;;;;;;;;;;;;13.56;63.84;101297.50;5034648;28;19917;-84
2022/02/03 17:01:01;;;;;;;;;;;;;;;13.63;64.10;101291.66;5034548;28;19917;-82
2022/02/03 17:03:27;;;;;;;;;;;;;;;12.88;65.16;101290.06;5033954;28;19917;-82
2022/02/03 17:05:52;;;;;;;;;;;;;;;12.29;67.82;101301.06;5034145;28;19921;-82
2022/02/03 17:08:17;;;;;;;;;;;;;;;12.82;67.30;101293.97;5034398;28;19924;-82
2022/02/03 17:10:43;;;;;;;;;;;;;;;13.22;64.22;101294.66;5033936;28;19917;-82
2022/02/03 17:13:08;;;;;;;;;;;;;;;13.22;64.32;101300.06;5034051;28;19967;-81
2022/02/03 17:15:35;;;;;;;;;;;;;;;12.69;66.49;101296.41;5033819;28;19921;-81
2022/02/03 17:18:00;;;;;;;;;;;;;;;13.03;66.47;101294.72;5023285;28;19964;-80
2022/02/03 17:20:28;;;;;;;;;;;;;;;13.65;62.56;101297.00;5014547;28;19960;-81
2022/02/03 17:22:55;;;;;;;;;;;;;;;13.15;64.19;101292.31;5014830;28;19918;-84
2022/02/03 17:25:29;;;;;;;;;;;;;;;12.80;66.40;101295.00;5015175;28;19917;-82
2022/02/03 18:30:03;;;;;;;;;;;;;;;13.18;62.21;101308.47;5014707;28;19928;-84
2022/02/03 18:32:36;;;;;;;;;;;;;;;12.51;65.50;101309.03;5014761;28;19918;-83
2022/02/03 18:35:08;;;;;;;;;;;;;;;13.87;60.68;101306.72;5014589;28;19952;-81
2022/02/03 18:51:04;;;;;;;;;;;;;;;13.90;59.26;101309.28;5014322;28;19924;-82
2022/02/03 18:54:16;;;;;;;;;;;;;;;13.39;62.32;101307.41;5013818;28;20291;-82
2022/02/03 18:58:52;;;;;;;;;;;;;;;13.00;62.69;101311.19;5013875;28;19971;-82
2022/02/03 19:13:30;;;;;;;;;;;;;;;13.64;60.66;101284.34;4972094;28;19961;-82
2022/02/03 19:29:09;;;;;;;;;;;;;;;13.10;64.22;101270.84;5013865;28;20360;-84
2022/02/03 19:56:40;;;;;;;;;;;;;;;13.24;63.19;101271.00;5013561;28;20633;-83
2022/02/03 20:07:21;;;;;;;;;;;;;;;13.57;59.40;101288.34;5013448;28;19928;-83
2022/02/03 20:10:14;;;;;;;;;;;;;;;12.93;60.79;101288.00;5013265;28;20023;-84
2022/02/03 20:12:39;;;;;;;;;;;;;;;12.45;61.48;101282.19;5011734;28;20023;-83
2022/02/03 20:15:05;;;;;;;;;;;;;;;12.72;59.94;101279.09;5013181;28;19981;-83
2022/02/03 20:17:30;;;;;;;;;;;;;;;12.72;60.22;101274.53;5011542;28;19961;-82
2022/02/03 20:19:55;;;;;;;;;;;;;;;13.27;59.23;101272.66;5011536;28;19924;-83
2022/02/03 20:22:26;;;;;;;;;;;;;;;13.14;58.54;101271.56;5011427;28;19971;-82
2022/02/03 20:24:58;;;;;;;;;;;;;;;13.53;57.36;101278.63;5019898;28;19932;-82
2022/02/03 20:27:23;;;;;;;;;;;;;;;13.38;57.33;101270.31;5020064;28;20344;-83
2022/02/03 20:29:49;;;;;;;;;;;;;;;13.56;58.13;101273.03;5013248;28;19918;-82
2022/02/03 20:32:15;;;;;;;;;;;;;;;14.17;55.63;101264.22;5014613;28;19917;-82
2022/02/03 20:34:40;;;;;;;;;;;;;;;13.17;57.51;101263.25;5015048;28;20256;-82
2022/02/03 20:37:05;;;;;;;;;;;;;;;12.57;61.67;101264.44;5015341;28;20478;-82
2022/02/03 20:39:30;;;;;;;;;;;;;;;12.91;60.33;101257.34;5016548;28;19917;-83
2022/02/03 20:41:56;;;;;;;;;;;;;;;13.99;56.67;101257.09;5015456;28;19950;-83
2022/02/03 20:44:21;;;;;;;;;;;;;;;13.06;60.27;101264.69;5016291;28;19928;-83
2022/02/03 20:46:46;;;;;;;;;;;;;;;13.27;58.66;101264.53;5016508;28;19937;-83
2022/02/03 20:49:11;;;;;;;;;;;;;;;13.39;57.97;101257.59;5015236;28;19968;-83
2022/02/03 20:51:37;;;;;;;;;;;;;;;13.20;59.61;101255.81;5014700;28;20371;-83
2022/02/03 20:54:03;;;;;;;;;;;;;;;13.38;58.81;101259.44;5015175;28;19917;-83
2022/02/03 20:56:28;;;;;;;;;;;;;;;13.03;59.24;101248.56;5022484;28;20279;-83
2022/02/03 20:58:53;;;;;;;;;;;;;;;12.82;59.91;101264.09;5037203;28;20278;-83
2022/02/03 21:01:27;;;;;;;;;;;;;;;13.90;56.44;101246.72;5037102;28;20291;-83
2022/02/03 21:04:01;;;;;;;;;;;;;;;13.88;55.88;101248.66;5037574;28;20203;-85
2022/02/03 21:06:26;;;;;;;;;;;;;;;14.40;54.01;101253.00;5037583;28;19929;-85
2022/02/03 21:08:51;;;;;;;;;;;;;;;13.62;55.28;101253.66;5038190;28;19975;-83
2022/02/03 21:11:18;;;;;;;;;;;;;;;13.36;56.29;101255.94;5038856;28;19921;-83
2022/02/03 21:13:43;;;;;;;;;;;;;;;12.74;59.07;101245.50;5037538;28;19924;-85
2022/02/03 21:16:08;;;;;;;;;;;;;;;12.95;58.70;101250.75;5037252;28;19918;-83
2022/02/03 21:18:38;;;;;;;;;;;;;;;13.22;57.72;101258.47;5038141;28;19925;-84
2022/02/03 21:21:04;;;;;;;;;;;;;;;13.76;56.82;101252.91;5039599;28;19921;-84
2022/02/03 21:23:30;;;;;;;;;;;;;;;13.93;55.92;101251.97;5041010;28;19924;-84
2022/02/03 21:25:58;;;;;;;;;;;;;;;14.04;55.84;101245.94;5039168;28;19917;-85
2022/02/03 21:28:29;;;;;;;;;;;;;;;13.65;56.37;101248.06;5037025;28;19943;-82
2022/02/03 21:30:55;;;;;;;;;;;;;;;13.47;57.51;101248.09;5037733;28;19917;-84
2022/02/03 21:33:25;;;;;;;;;;;;;;;14.21;55.50;101251.34;5037594;28;19920;-84
2022/02/03 21:35:55;;;;;;;;;;;;;;;13.56;57.51;101252.16;5037638;28;19956;-87
2022/02/03 21:38:21;;;;;;;;;;;;;;;14.08;55.34;101245.69;5039708;28;19924;-87
2022/02/03 21:40:46;;;;;;;;;;;;;;;13.39;56.73;101253.06;5040766;28;19917;-84
2022/02/03 21:43:12;;;;;;;;;;;;;;;13.79;55.97;101242.75;5038029;28;19992;-85
2022/02/03 21:45:37;;;;;;;;;;;;;;;13.36;56.76;101245.06;5035517;28;20501;-87
2022/02/03 21:48:03;;;;;;;;;;;;;;;14.14;54.76;101237.16;5036610;28;20295;-86
2022/02/03 21:50:35;;;;;;;;;;;;;;;13.91;56.16;101233.03;5036585;28;19924;-86
2022/02/03 21:53:03;;;;;;;;;;;;;;;13.34;57.16;101237.94;5039252;28;19944;-85
2022/02/03 21:55:32;;;;;;;;;;;;;;;12.68;59.62;101239.47;5037588;28;20312;-85
2022/02/03 21:57:57;;;;;;;;;;;;;;;12.57;59.05;101237.28;5037490;28;20312;-87
2022/02/03 22:00:22;;;;;;;;;;;;;;;13.73;57.85;101234.06;5036945;28;19928;-86
2022/02/03 22:02:48;;;;;;;;;;;;;;;13.42;57.43;101247.47;5038976;28;19917;-84
2022/02/03 22:05:14;;;;;;;;;;;;;;;13.61;57.69;101236.47;5040401;28;19928;-86
2022/02/03 22:07:40;;;;;;;;;;;;;;;13.00;59.18;101235.13;5038763;28;20322;-85
2022/02/03 22:10:10;;;;;;;;;;;;;;;13.57;56.88;101228.56;5036637;28;19929;-86
2022/02/03 22:12:35;;;;;;;;;;;;;;;13.43;56.69;101227.47;5035369;28;20531;-84
2022/02/03 22:15:00;;;;;;;;;;;;;;;14.61;54.21;101226.41;5035180;28;19921;-87
2022/02/03 22:17:26;;;;;;;;;;;;;;;13.07;58.83;101233.88;5033635;28;19917;-84
2022/02/03 22:19:53;;;;;;;;;;;;;;;13.33;57.31;101228.91;5035177;28;20020;-84
2022/02/03 22:27:45;;;;;;;;;;;;;;;13.11;57.86;101226.41;5035263;28;19982;-84
2022/02/03 22:43:54;;;;;;;;;;;;;;;13.98;56.27;101239.03;5035912;28;20398;-84
2022/02/03 22:48:58;;;;;;;;;;;;;;;13.24;57.97;101232.97;5035032;28;19975;-86
2022/02/03 22:51:23;;;;;;;;;;;;;;;12.97;59.00;101235.28;5034614;28;20304;-86
2022/02/03 22:53:48;;;;;;;;;;;;;;;13.50;59.01;101238.00;5032635;28;19924;-85
2022/02/03 22:56:15;;;;;;;;;;;;;;;12.92;60.07;101237.34;5033110;28;19929;-84
2022/02/03 23:01:08;;;;;;;;;;;;;;;12.95;60.41;101239.91;5037557;28;20059;-83
2022/02/03 23:03:34;;;;;;;;;;;;;;;13.10;58.85;101247.28;5039010;28;20063;-88
2022/02/03 23:06:00;;;;;;;;;;;;;;;13.46;59.16;101238.16;5036076;28;19960;-84
2022/02/03 23:24:09;;;;;;;;;;;;;;;13.57;60.21;101226.75;5037902;28;19940;-85
2022/02/03 23:26:35;;;;;;;;;;;;;;;13.69;58.74;101214.28;5037625;28;19966;-83